»·PEaware :: N805RJ KCMA-F70

N805RJ :: KCMA-F70

FLIGHT INFORMATION

Flight Status: Arrived
Operator: Privately registered:
United States
More flights under this callsign
Pilot: Rickie J. (22768)
Aircraft: CESSNA 172 SKYHAWK
(C172)
More flights by this aircraft type
Origin: KCMA Camarillo
United States
Destination: F70 French Valley
United States
More flights between these airports :: More routes between these airports
Route: FIM V186 NIKKL
File this flight plan on PilotEdge
Remarks:
Altitude:
(Current/Filed)
11,500ft
Speed:
(Current/Filed)
120kts
Departed: 03-Jan-21 09:32 AM
Arrived: 03-Jan-21 10:36 AM
Distance/Time
Traveled:
105nm/1:03
Distance/Time
To Go:
Arrived

Flight Plot

Page will automatically refresh every two minutes.

Flight plan parsing failed; only flown route is shown


Map Options




Map Legend


Flown Route
Filed Route
Departure Airport
Arrival Airport
Navaid (VOR, NDB)
Fix

Horizontal Profiles

Position Reports

Time Latitude Longitude Heading Altitude Ground
Speed
03-Jan-21 08:24 34.210764 -119.092225 313 81ft 0kts
03-Jan-21 08:25 34.210764 -119.092225 313 81ft 0kts
03-Jan-21 08:26 34.210764 -119.092225 313 81ft 0kts
03-Jan-21 08:27 34.210764 -119.092225 313 81ft 0kts
03-Jan-21 08:28 34.210764 -119.092225 313 81ft 0kts
03-Jan-21 08:29 34.210764 -119.092225 313 81ft 0kts
03-Jan-21 08:30 34.210764 -119.092225 313 81ft 0kts
03-Jan-21 08:31 34.210764 -119.092225 313 81ft 0kts
03-Jan-21 08:32 34.210764 -119.092225 313 81ft 0kts
03-Jan-21 08:33 34.210764 -119.092225 313 81ft 0kts
03-Jan-21 08:34 34.210764 -119.092225 313 81ft 0kts
03-Jan-21 08:35 34.210764 -119.092225 313 81ft 0kts
03-Jan-21 08:36 34.210764 -119.092225 313 81ft 0kts
03-Jan-21 08:37 34.210764 -119.092225 313 81ft 0kts
03-Jan-21 08:38 34.210764 -119.092225 313 81ft 0kts
03-Jan-21 08:39 34.210764 -119.092225 313 81ft 0kts
03-Jan-21 08:40 34.210764 -119.092225 313 81ft 0kts
03-Jan-21 08:41 34.210764 -119.092225 313 81ft 0kts
03-Jan-21 08:42 34.210764 -119.092225 313 81ft 0kts
03-Jan-21 08:43 34.210764 -119.092225 313 81ft 0kts
03-Jan-21 08:44 34.210764 -119.092225 313 81ft 0kts
03-Jan-21 08:45 34.210764 -119.092225 313 81ft 0kts
03-Jan-21 08:46 34.210764 -119.092225 313 81ft 0kts
03-Jan-21 08:47 34.210764 -119.092225 313 81ft 0kts
03-Jan-21 08:48 34.210764 -119.092225 313 81ft 0kts
03-Jan-21 08:49 34.210764 -119.092225 313 81ft 0kts
03-Jan-21 08:50 34.210764 -119.092225 313 81ft 0kts
03-Jan-21 08:52 34.210764 -119.092225 313 81ft 0kts
03-Jan-21 08:53 34.210764 -119.092225 313 81ft 0kts
03-Jan-21 08:54 34.210764 -119.092225 313 81ft 0kts
03-Jan-21 08:55 34.210764 -119.092225 313 81ft 0kts
03-Jan-21 08:56 34.210764 -119.092225 313 81ft 0kts
03-Jan-21 08:57 34.210764 -119.092225 313 81ft 0kts
03-Jan-21 08:58 34.210764 -119.092225 313 81ft 0kts
03-Jan-21 08:59 34.210764 -119.092225 313 81ft 0kts
03-Jan-21 09:00 34.210764 -119.092225 313 81ft 0kts
03-Jan-21 09:01 34.210764 -119.092225 313 81ft 0kts
03-Jan-21 09:02 34.210764 -119.092225 313 81ft 0kts
03-Jan-21 09:03 34.210764 -119.092225 313 81ft 0kts
03-Jan-21 09:04 34.210764 -119.092225 313 81ft 0kts
03-Jan-21 09:05 34.210764 -119.092225 313 81ft 0kts
03-Jan-21 09:05 34.210764 -119.092225 313 81ft 0kts
03-Jan-21 09:06 34.210764 -119.092225 313 81ft 0kts
03-Jan-21 09:08 34.210764 -119.092225 313 81ft 0kts
03-Jan-21 09:09 34.210764 -119.092225 313 81ft 0kts
03-Jan-21 09:09 34.210764 -119.092225 313 81ft 0kts
03-Jan-21 09:10 34.210764 -119.092225 313 81ft 0kts
03-Jan-21 09:11 34.210764 -119.092225 313 81ft 0kts
03-Jan-21 09:12 34.210764 -119.092225 313 81ft 0kts
03-Jan-21 09:13 34.210764 -119.092225 313 81ft 0kts
03-Jan-21 09:14 34.210764 -119.092225 313 81ft 0kts
03-Jan-21 09:15 34.210764 -119.092225 313 81ft 0kts
03-Jan-21 09:16 34.210764 -119.092225 313 81ft 0kts
03-Jan-21 09:17 34.210764 -119.092225 313 81ft 0kts
03-Jan-21 09:18 34.210764 -119.092225 313 81ft 0kts
03-Jan-21 09:19 34.210764 -119.092225 313 81ft 0kts
03-Jan-21 09:20 34.210764 -119.092225 313 81ft 0kts
03-Jan-21 09:21 34.210764 -119.092225 313 81ft 0kts
03-Jan-21 09:22 34.210764 -119.092225 313 81ft 0kts
03-Jan-21 09:23 34.210764 -119.092225 313 81ft 0kts
03-Jan-21 09:24 34.210764 -119.092225 313 81ft 0kts
03-Jan-21 09:25 34.210764 -119.092225 313 81ft 0kts
03-Jan-21 09:26 34.210985 -119.090343 93 81ft 16kts
03-Jan-21 09:27 34.211228 -119.084614 11 81ft 11kts
03-Jan-21 09:28 34.212160 -119.084049 339 81ft 0kts
03-Jan-21 09:29 34.212188 -119.084069 320 81ft 1kts
03-Jan-21 09:30 34.213001 -119.084631 359 81ft 3kts
03-Jan-21 09:31 34.213713 -119.091967 270 81ft 83kts
03-Jan-21 09:32 34.207306 -119.121337 197 814ft 96kts
03-Jan-21 09:33 34.196975 -119.096567 82 1638ft 96kts
03-Jan-21 09:34 34.199014 -119.063918 82 2432ft 96kts
03-Jan-21 09:35 34.200785 -119.030617 86 3150ft 97kts
03-Jan-21 09:36 34.202191 -118.997839 87 3830ft 97kts
03-Jan-21 09:37 34.208161 -118.965804 56 4443ft 99kts
03-Jan-21 09:38 34.230635 -118.951691 356 5024ft 97kts
03-Jan-21 09:39 34.259205 -118.951935 356 5542ft 101kts
03-Jan-21 09:40 34.287447 -118.943639 18 6055ft 102kts
03-Jan-21 09:41 34.314978 -118.931160 19 6571ft 101kts
03-Jan-21 09:42 34.337355 -118.909425 48 7043ft 102kts
03-Jan-21 09:43 34.352707 -118.879232 96 7455ft 104kts
03-Jan-21 09:44 34.344283 -118.845102 114 7862ft 103kts
03-Jan-21 09:45 34.333381 -118.812495 115 8265ft 103kts
03-Jan-21 09:46 34.322434 -118.780378 114 8667ft 100kts
03-Jan-21 09:47 34.311893 -118.749434 116 9059ft 98kts
03-Jan-21 09:48 34.301518 -118.719019 115 9446ft 96kts
03-Jan-21 09:49 34.290935 -118.688095 115 9751ft 100kts
03-Jan-21 09:50 34.280105 -118.656438 116 10046ft 102kts
03-Jan-21 09:51 34.269198 -118.624582 116 10342ft 102kts
03-Jan-21 09:52 34.258232 -118.592586 117 10640ft 102kts
03-Jan-21 09:53 34.247200 -118.560431 117 10940ft 101kts
03-Jan-21 09:54 34.236323 -118.528767 117 11236ft 101kts
03-Jan-21 09:55 34.225427 -118.497011 118 11508ft 103kts
03-Jan-21 09:56 34.214294 -118.460863 114 11501ft 120kts
03-Jan-21 09:57 34.202543 -118.422108 114 11509ft 124kts
03-Jan-21 09:58 34.190425 -118.382565 114 11501ft 126kts
03-Jan-21 09:59 34.178315 -118.342535 116 11495ft 125kts
03-Jan-21 10:00 34.166175 -118.302574 115 11501ft 127kts
03-Jan-21 10:01 34.154070 -118.262607 115 11497ft 125kts
03-Jan-21 10:02 34.142030 -118.223058 115 11498ft 125kts
03-Jan-21 10:03 34.130022 -118.183684 115 11523ft 123kts
03-Jan-21 10:04 34.118043 -118.144505 115 11509ft 125kts
03-Jan-21 10:05 34.105996 -118.105145 115 11510ft 124kts
03-Jan-21 10:06 34.093883 -118.065639 115 11509ft 124kts
03-Jan-21 10:07 34.081767 -118.026181 115 11508ft 125kts
03-Jan-21 10:08 34.069590 -117.986569 115 11509ft 125kts
03-Jan-21 10:09 34.058554 -117.944685 87 11238ft 143kts
03-Jan-21 10:10 34.067640 -117.896135 90 10828ft 145kts
03-Jan-21 10:11 34.069686 -117.846605 90 10411ft 144kts
03-Jan-21 10:12 34.071595 -117.797350 90 9995ft 143kts
03-Jan-21 10:13 34.073330 -117.747972 98 9567ft 143kts
03-Jan-21 10:14 34.053270 -117.710077 128 9502ft 127kts
03-Jan-21 10:15 34.032808 -117.675211 128 9502ft 124kts
03-Jan-21 10:16 34.012535 -117.640568 128 9506ft 124kts
03-Jan-21 10:17 33.987680 -117.612322 149 9480ft 123kts
03-Jan-21 10:18 33.961365 -117.585160 139 9504ft 122kts
03-Jan-21 10:19 33.937240 -117.554681 134 9502ft 125kts
03-Jan-21 10:20 33.911292 -117.524072 147 9205ft 133kts
03-Jan-21 10:21 33.880610 -117.498279 148 8623ft 132kts
03-Jan-21 10:22 33.849368 -117.472053 148 8013ft 133kts
03-Jan-21 10:23 33.817760 -117.445566 148 7404ft 135kts
03-Jan-21 10:24 33.785779 -117.418805 147 6792ft 135kts
03-Jan-21 10:25 33.753722 -117.392005 148 6167ft 137kts
03-Jan-21 10:26 33.723598 -117.360776 128 5558ft 143kts
03-Jan-21 10:27 33.705126 -117.316836 116 4943ft 146kts
03-Jan-21 10:28 33.688148 -117.271306 116 4316ft 139kts
03-Jan-21 10:29 33.672592 -117.229927 116 3688ft 129kts
03-Jan-21 10:31 33.658289 -117.189093 112 3063ft 128kts
03-Jan-21 10:32 33.644660 -117.150456 112 2519ft 107kts
03-Jan-21 10:33 33.627846 -117.125318 163 2104ft 89kts
03-Jan-21 10:34 33.605194 -117.119907 193 1867ft 75kts
03-Jan-21 10:35 33.585823 -117.125491 188 1478ft 63kts
03-Jan-21 10:36 33.577410 -117.127834 295 1354ft 3kts
03-Jan-21 10:37 33.577899 -117.128511 282 1354ft 0kts
03-Jan-21 10:38 33.578401 -117.129151 355 1354ft 6kts
03-Jan-21 10:39 33.578440 -117.129898 283 1354ft 0kts
03-Jan-21 10:40 33.578441 -117.129903 283 1354ft 0kts
03-Jan-21 10:41 33.578441 -117.129903 283 1354ft 0kts
03-Jan-21 10:42 33.578441 -117.129903 283 1354ft 0kts
03-Jan-21 10:43 33.578441 -117.129903 283 1354ft 0kts
03-Jan-21 10:44 33.578441 -117.129903 283 1354ft 0kts
03-Jan-21 10:45 33.578441 -117.129903 283 1354ft 0kts
03-Jan-21 10:45 33.578441 -117.129903 283 1354ft 0kts
03-Jan-21 10:47 33.578441 -117.129903 283 1354ft 0kts
03-Jan-21 10:48 33.578441 -117.129903 283 1354ft 0kts
03-Jan-21 10:48 33.578441 -117.129903 283 1354ft 0kts
03-Jan-21 10:49 33.578441 -117.129903 283 1354ft 0kts

Navigation Log

Ident Type
Flight plan parsing failed, navigation log unavailable